createdAt,value
2023-03-05T00:00:00.321Z,24.38
2023-03-05T00:01:34.558Z,24.40
2023-03-05T00:03:07.730Z,21.38
2023-03-05T00:04:42.404Z,18.10
2023-03-05T00:06:14.874Z,21.08
2023-03-05T00:07:48.977Z,15.68
2023-03-05T00:09:22.598Z,17.13
2023-03-05T00:10:59.726Z,15.20
2023-03-05T00:12:33.085Z,16.30
2023-03-05T00:14:07.161Z,16.33
2023-03-05T00:15:43.303Z,16.08
2023-03-05T00:17:16.533Z,18.70
2023-03-05T00:18:50.466Z,18.13
2023-03-05T00:20:25.065Z,17.77
2023-03-05T00:21:58.490Z,20.73
2023-03-05T00:23:30.889Z,20.52
2023-03-05T00:25:04.784Z,22.52
2023-03-05T00:26:40.196Z,18.42
2023-03-05T00:28:12.872Z,20.50
2023-03-05T00:29:46.183Z,19.50
2023-03-05T00:31:20.370Z,19.98
2023-03-05T00:32:54.042Z,19.52
2023-03-05T00:34:28.397Z,19.92
2023-03-05T00:36:07.229Z,20.92
2023-03-05T00:37:40.396Z,21.83
2023-03-05T00:39:14.661Z,22.75
2023-03-05T00:40:46.927Z,28.05
2023-03-05T00:42:20.143Z,22.63
2023-03-05T00:43:52.430Z,23.95
2023-03-05T00:45:25.671Z,21.75
2023-03-05T00:46:59.274Z,18.88
2023-03-05T00:48:31.614Z,23.52
2023-03-05T00:50:08.017Z,23.30
2023-03-05T00:51:41.802Z,26.25
2023-03-05T00:53:15.204Z,21.65
2023-03-05T00:54:48.371Z,22.90
2023-03-05T00:56:21.844Z,23.45
2023-03-05T00:57:54.177Z,20.38
2023-03-05T00:59:27.749Z,18.80
2023-03-05T01:01:02.949Z,18.83
2023-03-05T01:02:36.198Z,21.02
2023-03-05T01:04:09.783Z,20.27
2023-03-05T01:05:43.178Z,18.48
2023-03-05T01:07:17.897Z,16.90
2023-03-05T01:08:51.359Z,15.88
2023-03-05T01:10:26.603Z,14.43
2023-03-05T01:12:00.318Z,13.65
2023-03-05T01:13:33.508Z,13.82
2023-03-05T01:15:07.774Z,13.82
2023-03-05T01:16:41.094Z,14.15
2023-03-05T01:18:13.564Z,13.90
2023-03-05T01:19:46.684Z,14.02
2023-03-05T01:21:20.305Z,15.90
2023-03-05T01:22:55.187Z,14.45
2023-03-05T01:24:28.751Z,12.25
2023-03-05T01:26:01.886Z,12.90
2023-03-05T01:27:35.392Z,12.93
2023-03-05T01:29:08.714Z,12.95
2023-03-05T01:30:41.302Z,13.60
2023-03-05T01:32:14.678Z,13.70
2023-03-05T01:33:48.097Z,13.32
2023-03-05T01:35:24.358Z,13.40
2023-03-05T01:36:57.643Z,15.57
2023-03-05T01:38:31.300Z,17.73
2023-03-05T01:40:06.341Z,17.13
2023-03-05T01:41:39.871Z,17.17
2023-03-05T01:43:27.928Z,17.15
2023-03-05T01:45:03.941Z,15.98
2023-03-05T01:46:38.865Z,18.13
2023-03-05T01:48:11.192Z,16.63
2023-03-05T01:49:44.483Z,16.05
2023-03-05T01:51:17.580Z,17.90
2023-03-05T01:52:54.049Z,13.70
2023-03-05T01:54:34.007Z,13.80
2023-03-05T01:56:07.834Z,13.85
2023-03-05T01:57:45.360Z,14.55
2023-03-05T01:59:19.273Z,14.45
2023-03-05T02:00:55.405Z,13.48
2023-03-05T02:02:29.030Z,14.43
2023-03-05T02:04:02.564Z,14.38
2023-03-05T02:05:38.179Z,13.18
2023-03-05T02:07:13.041Z,13.73
2023-03-05T02:08:46.890Z,15.10
2023-03-05T02:10:23.777Z,15.85
2023-03-05T02:11:56.991Z,15.18
2023-03-05T02:13:34.164Z,13.18
2023-03-05T02:15:09.217Z,12.88
2023-03-05T02:16:43.074Z,15.63
2023-03-05T02:18:17.027Z,17.05
2023-03-05T02:19:52.504Z,21.73
2023-03-05T02:21:36.830Z,18.67
2023-03-05T02:23:10.238Z,17.33
2023-03-05T02:24:43.500Z,15.85
2023-03-05T02:26:15.742Z,14.73
2023-03-05T02:27:56.025Z,14.57
2023-03-05T02:29:30.636Z,14.43
2023-03-05T02:31:03.971Z,15.30
2023-03-05T02:32:37.224Z,15.35
2023-03-05T02:34:11.879Z,15.07
2023-03-05T02:35:46.589Z,13.57
2023-03-05T02:37:21.333Z,15.43
2023-03-05T02:38:59.204Z,14.23
2023-03-05T02:40:31.964Z,13.90
2023-03-05T02:42:05.386Z,12.15
2023-03-05T02:43:39.310Z,13.48
2023-03-05T02:45:14.153Z,12.90
2023-03-05T02:46:47.790Z,13.40
2023-03-05T02:48:20.082Z,12.68
2023-03-05T02:49:53.426Z,12.57
2023-03-05T02:51:26.620Z,13.65
2023-03-05T02:53:02.243Z,13.13
2023-03-05T02:54:35.991Z,14.68
2023-03-05T02:56:09.250Z,17.55
2023-03-05T02:57:42.602Z,16.17
2023-03-05T02:59:16.053Z,14.05
2023-03-05T03:00:49.395Z,13.57
2023-03-05T03:02:22.901Z,14.40
2023-03-05T03:03:55.081Z,15.57
2023-03-05T03:05:28.621Z,13.75
2023-03-05T03:07:01.748Z,15.30
2023-03-05T03:08:36.486Z,13.90
2023-03-05T03:10:09.900Z,13.93
2023-03-05T03:11:43.559Z,13.68
2023-03-05T03:13:15.636Z,14.90
2023-03-05T03:14:48.944Z,13.63
2023-03-05T03:16:22.236Z,12.00
2023-03-05T03:17:56.097Z,13.27
2023-03-05T03:19:29.372Z,11.73
2023-03-05T03:21:02.948Z,12.38
2023-03-05T03:22:36.188Z,12.60
2023-03-05T03:24:11.052Z,11.93
2023-03-05T03:25:43.354Z,12.27
2023-03-05T03:27:16.571Z,12.30
2023-03-05T03:28:49.700Z,12.27
2023-03-05T03:30:23.228Z,11.93
2023-03-05T03:31:55.478Z,13.15
2023-03-05T03:33:28.647Z,12.60
2023-03-05T03:35:01.293Z,14.13
2023-03-05T03:36:35.902Z,14.52
2023-03-05T03:38:08.179Z,14.23
2023-03-05T03:39:42.790Z,14.77
2023-03-05T03:41:18.944Z,15.65
2023-03-05T03:42:53.202Z,14.43
2023-03-05T03:44:26.386Z,14.60
2023-03-05T03:45:59.578Z,14.70
2023-03-05T03:47:32.947Z,15.30
2023-03-05T03:49:06.510Z,15.80
2023-03-05T03:50:39.478Z,17.15
2023-03-05T03:52:12.730Z,17.20
2023-03-05T03:53:46.023Z,19.00
2023-03-05T03:55:19.906Z,20.85
2023-03-05T03:56:53.768Z,23.90
2023-03-05T03:58:27.344Z,28.67
2023-03-05T04:00:00.953Z,21.33
2023-03-05T04:01:34.488Z,24.90
2023-03-05T04:03:07.148Z,22.77
2023-03-05T04:04:40.449Z,24.33
2023-03-05T04:06:13.772Z,24.55
2023-03-05T04:07:47.188Z,23.10
2023-03-05T04:09:19.285Z,22.08
2023-03-05T04:10:53.856Z,20.75
2023-03-05T04:12:26.306Z,23.60
2023-03-05T04:13:59.803Z,35.67
2023-03-05T04:15:32.141Z,27.25
2023-03-05T04:17:05.420Z,25.73
2023-03-05T04:18:38.566Z,21.52
2023-03-05T04:20:13.543Z,21.38
2023-03-05T04:21:46.707Z,21.02
2023-03-05T04:23:20.017Z,19.20
2023-03-05T04:24:53.182Z,16.83
2023-03-05T04:26:28.259Z,15.85
2023-03-05T04:28:01.473Z,14.65
2023-03-05T04:29:36.914Z,15.00
2023-03-05T04:31:10.116Z,15.80
2023-03-05T04:32:43.935Z,20.60
2023-03-05T04:34:17.204Z,21.48
2023-03-05T04:35:50.423Z,24.73
2023-03-05T04:37:22.857Z,29.85
2023-03-05T04:38:56.510Z,54.47
2023-03-05T04:40:28.885Z,38.60
2023-03-05T04:42:03.491Z,18.67
2023-03-05T04:43:36.651Z,24.80
2023-03-05T04:45:10.907Z,23.60
2023-03-05T04:46:44.267Z,26.38
2023-03-05T04:48:17.105Z,23.02
2023-03-05T04:49:50.166Z,27.23
2023-03-05T04:51:23.895Z,27.88
2023-03-05T04:52:57.323Z,28.58
2023-03-05T04:54:30.480Z,29.67
2023-03-05T04:56:03.672Z,27.70
2023-03-05T04:57:38.874Z,25.48
2023-03-05T04:59:12.310Z,23.52
2023-03-05T05:00:45.704Z,26.15
2023-03-05T05:02:17.877Z,29.50
2023-03-05T05:03:51.560Z,31.98
2023-03-05T05:05:26.779Z,33.53
2023-03-05T05:07:00.805Z,33.88
2023-03-05T05:08:34.292Z,35.00
2023-03-05T05:10:10.363Z,32.20
2023-03-05T05:11:43.484Z,35.42
2023-03-05T05:13:18.017Z,34.95
2023-03-05T05:14:51.161Z,33.47
2023-03-05T05:16:24.849Z,33.65
2023-03-05T05:17:57.979Z,35.00
2023-03-05T05:19:31.358Z,41.25
2023-03-05T05:21:09.265Z,44.50
2023-03-05T05:22:43.289Z,44.30
2023-03-05T05:24:16.428Z,49.08
2023-03-05T05:25:57.629Z,50.80
2023-03-05T05:27:30.878Z,43.40
2023-03-05T05:29:05.912Z,35.25
2023-03-05T05:30:39.720Z,42.55
2023-03-05T05:32:13.344Z,38.33
2023-03-05T05:33:49.597Z,30.42
2023-03-05T05:35:23.551Z,26.05
2023-03-05T05:36:56.807Z,26.40
2023-03-05T05:38:30.101Z,18.77
2023-03-05T05:40:04.390Z,20.00
2023-03-05T05:41:37.837Z,16.23
2023-03-05T05:43:10.462Z,16.52
2023-03-05T05:44:45.054Z,15.77
2023-03-05T05:46:20.652Z,15.52
2023-03-05T05:47:53.110Z,15.68
2023-03-05T05:49:26.691Z,14.98
2023-03-05T05:51:00.279Z,15.40
2023-03-05T05:52:33.443Z,16.40
2023-03-05T05:54:07.271Z,17.15
2023-03-05T05:55:41.463Z,19.52
2023-03-05T05:57:14.965Z,20.70
2023-03-05T05:58:49.472Z,27.20
2023-03-05T06:00:24.933Z,26.83
2023-03-05T06:01:58.221Z,27.35
2023-03-05T06:03:31.162Z,23.15
2023-03-05T06:05:04.424Z,21.13
2023-03-05T06:06:37.730Z,22.95
2023-03-05T06:08:11.205Z,23.33
2023-03-05T06:09:43.506Z,21.92
2023-03-05T06:11:19.251Z,25.13
2023-03-05T06:12:53.113Z,25.95
2023-03-05T06:14:26.341Z,24.67
2023-03-05T06:16:03.485Z,25.48
2023-03-05T06:17:36.953Z,25.73
2023-03-05T06:19:12.733Z,26.35
2023-03-05T06:20:44.932Z,24.98
2023-03-05T06:22:18.087Z,29.10
2023-03-05T06:23:52.526Z,28.27
2023-03-05T06:25:25.881Z,27.20
2023-03-05T06:26:59.154Z,25.65
2023-03-05T06:28:31.783Z,24.30
2023-03-05T06:30:05.612Z,21.55
2023-03-05T06:31:40.466Z,21.50
2023-03-05T06:33:12.924Z,30.40
2023-03-05T06:34:46.219Z,20.58
2023-03-05T06:36:21.436Z,24.85
2023-03-05T06:37:54.705Z,28.60
2023-03-05T06:39:27.879Z,28.77
2023-03-05T06:41:02.761Z,30.73
2023-03-05T06:42:36.152Z,24.33
2023-03-05T06:44:09.699Z,23.23
2023-03-05T06:45:41.894Z,26.52
2023-03-05T06:47:16.522Z,24.05
2023-03-05T06:48:50.642Z,24.67
2023-03-05T06:50:24.280Z,25.30
2023-03-05T06:51:56.512Z,22.52
2023-03-05T06:53:29.790Z,24.88
2023-03-05T06:55:03.007Z,25.05
2023-03-05T06:56:38.610Z,23.65
2023-03-05T06:58:11.928Z,22.30
2023-03-05T06:59:45.106Z,21.92
2023-03-05T07:01:18.354Z,21.23
2023-03-05T07:02:53.126Z,23.35
2023-03-05T07:04:26.343Z,25.33
2023-03-05T07:05:59.938Z,22.83
2023-03-05T07:07:34.098Z,22.48
2023-03-05T07:09:08.603Z,26.13
2023-03-05T07:10:43.034Z,27.17
2023-03-05T07:12:16.740Z,24.83
2023-03-05T07:13:50.826Z,24.77
2023-03-05T07:15:24.287Z,23.13
2023-03-05T07:16:56.506Z,23.50
2023-03-05T07:18:31.211Z,25.02
2023-03-05T07:20:04.962Z,24.40
2023-03-05T07:21:39.971Z,22.70
2023-03-05T07:23:13.383Z,24.45
2023-03-05T07:24:46.514Z,21.85
2023-03-05T07:26:19.710Z,35.55
2023-03-05T07:27:53.003Z,35.95
2023-03-05T07:29:27.623Z,32.03
2023-03-05T07:31:02.746Z,32.45
2023-03-05T07:32:37.087Z,30.88
2023-03-05T07:34:12.529Z,26.40
2023-03-05T07:35:45.730Z,25.83
2023-03-05T07:37:19.175Z,23.52
2023-03-05T07:38:52.287Z,21.42
2023-03-05T07:40:25.791Z,19.80
2023-03-05T07:41:59.311Z,18.05
2023-03-05T07:43:37.698Z,16.33
2023-03-05T07:45:11.963Z,18.83
2023-03-05T07:46:45.951Z,22.65
2023-03-05T07:48:21.511Z,18.67
2023-03-05T07:49:56.376Z,18.70
2023-03-05T07:51:30.166Z,19.02
2023-03-05T07:53:03.527Z,20.15
2023-03-05T07:54:39.877Z,19.63
2023-03-05T07:56:13.160Z,21.20
2023-03-05T07:57:46.323Z,17.77
2023-03-05T07:59:19.650Z,18.27
2023-03-05T08:00:53.238Z,18.83
2023-03-05T08:02:26.586Z,18.58
2023-03-05T08:04:03.111Z,20.02
2023-03-05T08:05:43.342Z,19.58
2023-03-05T08:07:17.267Z,38.75
2023-03-05T08:08:50.523Z,22.75
2023-03-05T08:10:23.643Z,16.52
2023-03-05T08:11:57.284Z,19.42
2023-03-05T08:13:30.656Z,18.30
2023-03-05T08:15:03.883Z,16.77
2023-03-05T08:16:37.190Z,20.60
2023-03-05T08:18:10.967Z,17.98
2023-03-05T08:19:44.565Z,19.05
2023-03-05T08:21:21.237Z,19.35
2023-03-05T08:22:54.609Z,18.05
2023-03-05T08:24:29.908Z,18.88
2023-03-05T08:26:03.059Z,20.63
2023-03-05T08:27:40.423Z,19.45
2023-03-05T08:29:13.857Z,23.77
2023-03-05T08:30:47.619Z,20.48
2023-03-05T08:32:20.836Z,18.23
2023-03-05T08:33:56.028Z,17.90
2023-03-05T08:35:29.275Z,17.67
2023-03-05T08:37:04.577Z,18.08
2023-03-05T08:38:37.946Z,18.60
2023-03-05T08:40:12.651Z,19.38
2023-03-05T08:41:45.866Z,19.67
2023-03-05T08:43:19.305Z,17.75
2023-03-05T08:44:52.729Z,18.08
2023-03-05T08:46:26.297Z,18.15
2023-03-05T08:47:59.422Z,23.05
2023-03-05T08:49:32.861Z,21.38
2023-03-05T08:51:07.261Z,20.50
2023-03-05T08:52:41.825Z,17.40
2023-03-05T08:54:15.031Z,19.17
2023-03-05T08:55:55.521Z,17.98
2023-03-05T08:57:28.723Z,18.17
2023-03-05T08:59:01.894Z,18.00
2023-03-05T09:00:35.033Z,18.25
2023-03-05T09:02:08.737Z,18.77
2023-03-05T09:03:42.325Z,18.65
2023-03-05T09:05:15.529Z,18.05
2023-03-05T09:06:48.726Z,17.58
2023-03-05T09:08:23.665Z,19.10
2023-03-05T09:09:56.842Z,16.67
2023-03-05T09:11:30.021Z,16.95
2023-03-05T09:13:04.203Z,16.23
2023-03-05T09:14:37.641Z,15.63
2023-03-05T09:16:13.699Z,15.93
2023-03-05T09:17:47.207Z,16.80
2023-03-05T09:19:20.299Z,12.75
2023-03-05T09:20:55.664Z,13.73
2023-03-05T09:22:30.510Z,16.60
2023-03-05T09:24:05.448Z,15.80
2023-03-05T09:25:40.825Z,16.88
2023-03-05T09:27:14.281Z,17.08
2023-03-05T09:28:48.515Z,17.20
2023-03-05T09:30:22.329Z,15.20
2023-03-05T09:31:55.750Z,15.45
2023-03-05T09:33:29.198Z,17.83
2023-03-05T09:35:02.741Z,16.58
2023-03-05T09:36:36.264Z,14.52
2023-03-05T09:38:10.885Z,16.83
2023-03-05T09:39:45.803Z,17.15
2023-03-05T09:41:31.293Z,16.58
2023-03-05T09:43:13.028Z,16.77
2023-03-05T09:44:56.754Z,16.42
2023-03-05T09:46:41.999Z,16.50
2023-03-05T09:48:20.555Z,16.17
2023-03-05T09:50:02.485Z,16.38
2023-03-05T09:51:40.448Z,16.13
2023-03-05T09:53:33.197Z,14.20
2023-03-05T09:55:14.701Z,15.63
2023-03-05T09:56:51.583Z,16.50
2023-03-05T09:58:35.853Z,45.17
2023-03-05T10:00:22.848Z,19.55
2023-03-05T10:01:59.165Z,15.93
2023-03-05T10:03:45.784Z,15.77
2023-03-05T10:05:24.121Z,14.38
2023-03-05T10:07:01.683Z,16.33
2023-03-05T10:08:47.412Z,14.82
2023-03-05T10:10:27.066Z,15.30
2023-03-05T10:12:04.522Z,13.52
2023-03-05T10:13:40.542Z,14.82
2023-03-05T10:15:16.314Z,14.93
2023-03-05T10:17:02.129Z,12.70
2023-03-05T10:18:42.580Z,13.65
2023-03-05T10:20:42.551Z,14.02
2023-03-05T10:22:21.750Z,12.43
2023-03-05T10:24:12.092Z,14.10
2023-03-05T10:25:58.202Z,13.82
2023-03-05T10:27:44.048Z,13.65
2023-03-05T10:29:37.500Z,17.65
2023-03-05T10:31:26.173Z,12.73
2023-03-05T10:33:13.404Z,12.40
2023-03-05T10:35:20.857Z,11.70
2023-03-05T10:37:13.073Z,12.82
2023-03-05T10:39:01.311Z,13.27
2023-03-05T10:40:39.958Z,14.13
2023-03-05T10:42:24.748Z,13.82
2023-03-05T10:44:02.898Z,13.95
2023-03-05T10:45:40.815Z,13.38
2023-03-05T10:47:20.891Z,12.75
2023-03-05T10:48:59.301Z,13.05
2023-03-05T10:50:38.115Z,10.13
2023-03-05T10:52:18.467Z,24.45
2023-03-05T10:53:57.571Z,14.75
2023-03-05T10:55:30.713Z,16.27
2023-03-05T10:57:06.045Z,12.93
2023-03-05T10:58:40.655Z,13.85
2023-03-05T11:00:20.949Z,13.90
2023-03-05T11:02:05.338Z,14.88
2023-03-05T11:03:51.869Z,12.50
2023-03-05T11:05:46.497Z,12.45
2023-03-05T11:07:39.006Z,10.45
2023-03-05T11:09:28.308Z,12.88
2023-03-05T11:11:16.592Z,13.95
2023-03-05T11:12:50.111Z,12.55
2023-03-05T11:14:33.188Z,12.10
2023-03-05T11:16:08.969Z,14.25
2023-03-05T11:17:44.720Z,10.50
2023-03-05T11:19:21.828Z,10.38
2023-03-05T11:21:09.414Z,9.98
2023-03-05T11:22:42.534Z,11.63
2023-03-05T11:24:18.296Z,11.25
2023-03-05T11:25:58.278Z,13.40
2023-03-05T11:27:36.665Z,11.48
2023-03-05T11:29:19.573Z,12.02
2023-03-05T11:31:00.609Z,11.55
2023-03-05T11:32:34.306Z,9.80
2023-03-05T11:34:09.381Z,11.38
2023-03-05T11:35:44.493Z,10.73
2023-03-05T11:37:25.401Z,10.75
2023-03-05T11:39:00.822Z,9.88
2023-03-05T11:40:37.094Z,10.18
2023-03-05T11:42:15.296Z,10.13
2023-03-05T11:43:52.164Z,9.85
2023-03-05T11:45:27.680Z,9.30
2023-03-05T11:47:06.228Z,9.63
2023-03-05T11:48:41.960Z,9.48
2023-03-05T11:50:22.303Z,7.43
2023-03-05T11:52:01.909Z,6.55
2023-03-05T11:53:37.086Z,4.75
2023-03-05T11:55:16.307Z,9.48
2023-03-05T11:56:50.271Z,7.00
2023-03-05T11:58:30.496Z,10.10
2023-03-05T12:00:11.623Z,8.93
2023-03-05T12:01:48.084Z,7.97
2023-03-05T12:03:26.411Z,10.75
2023-03-05T12:05:03.351Z,9.15
2023-03-05T12:06:41.053Z,7.90
2023-03-05T12:08:17.056Z,10.48
2023-03-05T12:09:52.212Z,5.22
2023-03-05T12:11:29.071Z,6.80
2023-03-05T12:13:07.995Z,7.28
2023-03-05T12:14:46.602Z,8.88
2023-03-05T12:16:29.385Z,8.30
2023-03-05T12:18:15.128Z,9.68
2023-03-05T12:19:58.396Z,9.75
2023-03-05T12:21:37.083Z,9.95
2023-03-05T12:23:15.203Z,5.60
2023-03-05T12:24:48.546Z,7.13
2023-03-05T12:26:59.800Z,12.55
2023-03-05T12:28:58.590Z,5.78
2023-03-05T12:30:59.145Z,7.00
2023-03-05T12:33:02.695Z,8.10
2023-03-05T12:34:51.586Z,7.75
2023-03-05T12:36:36.825Z,8.45
2023-03-05T12:38:31.751Z,8.68
2023-03-05T12:40:21.699Z,6.03
2023-03-05T12:41:56.697Z,6.30
2023-03-05T12:43:32.245Z,8.43
2023-03-05T12:45:25.966Z,7.22
2023-03-05T12:47:23.931Z,9.88
2023-03-05T12:48:57.510Z,6.35
2023-03-05T12:50:52.686Z,8.00
2023-03-05T12:52:29.563Z,6.18
2023-03-05T12:54:30.016Z,9.13
2023-03-05T12:56:12.849Z,9.48
2023-03-05T12:57:47.726Z,9.25
2023-03-05T12:59:24.526Z,9.48
2023-03-05T13:01:05.545Z,9.48
2023-03-05T13:02:42.304Z,7.82
2023-03-05T13:04:20.115Z,9.07
2023-03-05T13:05:57.366Z,10.02
2023-03-05T13:07:30.522Z,9.38
2023-03-05T13:09:08.438Z,9.43
2023-03-05T13:10:42.305Z,11.77
2023-03-05T13:12:16.150Z,9.05
2023-03-05T13:13:50.488Z,10.85
2023-03-05T13:15:25.467Z,8.35
2023-03-05T13:16:59.238Z,7.32
2023-03-05T13:18:34.077Z,9.50
2023-03-05T13:20:30.128Z,10.07
2023-03-05T13:22:11.197Z,8.30
2023-03-05T13:23:49.309Z,10.98
2023-03-05T13:25:22.761Z,9.85
2023-03-05T13:26:56.879Z,6.45
2023-03-05T13:28:31.374Z,10.02
2023-03-05T13:30:05.122Z,12.95
2023-03-05T13:31:43.172Z,8.93
2023-03-05T13:33:20.594Z,12.82
2023-03-05T13:34:56.387Z,9.20
2023-03-05T13:36:29.741Z,17.20
2023-03-05T13:38:04.508Z,6.30
2023-03-05T13:39:44.382Z,10.10
2023-03-05T13:41:23.954Z,13.40
2023-03-05T13:43:12.047Z,11.98
2023-03-05T13:44:45.471Z,13.48
2023-03-05T13:46:27.151Z,13.07
2023-03-05T13:48:03.056Z,11.02
2023-03-05T13:49:36.457Z,12.95
2023-03-05T13:51:11.973Z,9.70
2023-03-05T13:52:45.425Z,11.65
2023-03-05T13:54:21.707Z,10.38
2023-03-05T13:55:57.922Z,7.78
2023-03-05T13:57:37.197Z,12.25
2023-03-05T13:59:18.962Z,11.32
2023-03-05T14:01:04.605Z,14.73
2023-03-05T14:02:38.097Z,11.32
2023-03-05T14:04:22.021Z,9.70
2023-03-05T14:05:55.843Z,9.70
2023-03-05T14:07:34.653Z,9.80
2023-03-05T14:09:09.873Z,8.98
2023-03-05T14:10:45.479Z,9.23
2023-03-05T14:12:30.444Z,9.10
2023-03-05T14:14:10.895Z,10.40
2023-03-05T14:16:04.223Z,8.27
2023-03-05T14:17:42.822Z,6.45
2023-03-05T14:19:34.867Z,9.88
2023-03-05T14:21:10.307Z,8.70
2023-03-05T14:22:46.144Z,9.48
2023-03-05T14:24:23.844Z,6.70
2023-03-05T14:26:19.216Z,8.50
2023-03-05T14:27:53.203Z,8.05
2023-03-05T14:29:29.271Z,10.00
2023-03-05T14:31:02.568Z,5.97
2023-03-05T14:32:38.622Z,8.73
2023-03-05T14:34:22.096Z,8.50
2023-03-05T14:35:57.807Z,9.65
2023-03-05T14:37:35.552Z,8.75
2023-03-05T14:39:09.322Z,12.82
2023-03-05T14:40:42.657Z,9.45
2023-03-05T14:42:33.489Z,8.13
2023-03-05T14:44:15.745Z,6.78
2023-03-05T14:45:49.392Z,6.00
2023-03-05T14:47:22.524Z,7.20
2023-03-05T14:48:55.769Z,7.75
2023-03-05T14:50:31.115Z,6.65
2023-03-05T14:52:06.762Z,9.50
2023-03-05T14:53:46.917Z,9.57
2023-03-05T14:55:22.938Z,8.05
2023-03-05T14:56:56.383Z,10.57
2023-03-05T14:58:35.533Z,7.72
2023-03-05T15:00:18.014Z,13.35
2023-03-05T15:01:51.508Z,8.32
2023-03-05T15:03:25.803Z,7.78
2023-03-05T15:04:59.558Z,11.98
2023-03-05T15:06:36.749Z,15.70
2023-03-05T15:08:16.021Z,6.93
2023-03-05T15:09:49.576Z,14.02
2023-03-05T15:11:23.289Z,9.45
2023-03-05T15:12:56.513Z,10.45
2023-03-05T15:14:31.377Z,15.45
2023-03-05T15:16:06.683Z,12.80
2023-03-05T15:17:43.595Z,8.05
2023-03-05T15:19:20.553Z,11.48
2023-03-05T15:20:54.896Z,8.80
2023-03-05T15:22:28.498Z,9.63
2023-03-05T15:24:01.800Z,8.73
2023-03-05T15:25:35.284Z,8.95
2023-03-05T15:27:08.470Z,10.73
2023-03-05T15:28:43.131Z,10.57
2023-03-05T15:30:23.343Z,10.70
2023-03-05T15:31:56.485Z,12.35
2023-03-05T15:33:30.486Z,10.02
2023-03-05T15:35:03.859Z,10.85
2023-03-05T15:36:37.009Z,9.52
2023-03-05T15:38:10.256Z,10.63
2023-03-05T15:39:43.628Z,8.32
2023-03-05T15:41:17.935Z,10.55
2023-03-05T15:42:52.158Z,10.57
2023-03-05T15:44:25.518Z,8.73
2023-03-05T15:46:00.254Z,17.42
2023-03-05T15:47:33.947Z,9.20
2023-03-05T15:49:07.424Z,11.43
2023-03-05T15:50:43.040Z,12.20
2023-03-05T15:52:16.607Z,11.20
2023-03-05T15:53:50.063Z,12.55
2023-03-05T15:55:23.507Z,17.90
2023-03-05T15:56:56.640Z,17.17
2023-03-05T15:58:29.786Z,19.48
2023-03-05T16:00:03.388Z,23.40
2023-03-05T16:01:49.065Z,14.30
2023-03-05T16:03:23.181Z,12.95
2023-03-05T16:04:56.779Z,16.40
2023-03-05T16:06:31.097Z,16.20
2023-03-05T16:08:04.671Z,12.93
2023-03-05T16:09:40.455Z,14.02
2023-03-05T16:11:17.442Z,13.02
2023-03-05T16:12:54.659Z,21.55
2023-03-05T16:14:30.016Z,19.98
2023-03-05T16:16:05.965Z,15.13
2023-03-05T16:17:53.870Z,15.40
2023-03-05T16:19:29.531Z,15.68
2023-03-05T16:21:03.187Z,16.23
2023-03-05T16:22:36.490Z,15.88
2023-03-05T16:24:09.931Z,15.30
2023-03-05T16:25:43.429Z,14.45
2023-03-05T16:27:17.718Z,13.60
2023-03-05T16:28:50.997Z,11.05
2023-03-05T16:30:24.744Z,10.88
2023-03-05T16:31:58.316Z,9.82
2023-03-05T16:33:35.239Z,6.85
2023-03-05T16:35:11.993Z,7.03
2023-03-05T16:36:50.861Z,9.25
2023-03-05T16:38:24.048Z,9.13
2023-03-05T16:40:00.181Z,9.95
2023-03-05T16:41:33.735Z,11.10
2023-03-05T16:43:07.293Z,9.85
2023-03-05T16:44:40.877Z,9.60
2023-03-05T16:46:15.522Z,6.85
2023-03-05T16:47:48.694Z,8.40
2023-03-05T16:49:24.231Z,10.07
2023-03-05T16:50:57.957Z,8.15
2023-03-05T16:52:31.823Z,11.00
2023-03-05T16:54:05.426Z,5.95
2023-03-05T16:55:39.251Z,9.05
2023-03-05T16:57:12.729Z,11.95
2023-03-05T16:58:45.978Z,9.73
2023-03-05T17:00:22.085Z,9.48
2023-03-05T17:01:55.556Z,14.20
2023-03-05T17:03:30.155Z,14.45
2023-03-05T17:05:05.230Z,10.77
2023-03-05T17:06:39.054Z,10.30
2023-03-05T17:08:12.326Z,6.80
2023-03-05T17:09:46.623Z,13.70
2023-03-05T17:11:20.865Z,12.73
2023-03-05T17:12:54.688Z,17.90
2023-03-05T17:14:28.156Z,12.40
2023-03-05T17:16:01.390Z,14.43
2023-03-05T17:17:34.987Z,10.55
2023-03-05T17:19:08.289Z,19.15
2023-03-05T17:20:43.180Z,14.48
2023-03-05T17:22:16.695Z,14.77
2023-03-05T17:23:50.339Z,12.15
2023-03-05T17:25:23.624Z,13.48
2023-03-05T17:26:57.292Z,17.23
2023-03-05T17:28:30.396Z,16.92
2023-03-05T17:30:04.014Z,26.55
2023-03-05T17:31:37.375Z,21.88
2023-03-05T17:33:11.432Z,19.33
2023-03-05T17:34:44.834Z,15.38
2023-03-05T17:36:21.719Z,17.70
2023-03-05T17:37:55.426Z,17.05
2023-03-05T17:39:28.834Z,14.25
2023-03-05T17:41:03.616Z,7.93
2023-03-05T17:42:38.546Z,15.27
2023-03-05T17:44:12.689Z,17.35
2023-03-05T17:45:47.407Z,15.57
2023-03-05T17:47:26.613Z,15.52
2023-03-05T17:49:01.554Z,10.02
2023-03-05T17:50:36.409Z,11.52
2023-03-05T17:52:12.185Z,11.30
2023-03-05T17:53:48.016Z,11.23
2023-03-05T17:55:29.121Z,8.15
2023-03-05T17:57:03.543Z,7.38
2023-03-05T17:58:39.717Z,7.88
2023-03-05T18:00:18.138Z,4.18
2023-03-05T18:01:51.845Z,9.82
2023-03-05T18:03:26.897Z,6.40
2023-03-05T18:05:22.901Z,10.20
2023-03-05T18:06:57.961Z,7.85
2023-03-05T18:08:33.426Z,9.27
2023-03-05T18:10:09.284Z,9.25
2023-03-05T18:11:42.515Z,10.98
2023-03-05T18:13:16.616Z,11.30
2023-03-05T18:14:51.133Z,11.05
2023-03-05T18:16:25.638Z,8.48
2023-03-05T18:17:59.685Z,10.05
2023-03-05T18:19:33.071Z,9.82
2023-03-05T18:21:08.044Z,9.02
2023-03-05T18:22:41.903Z,10.30
2023-03-05T18:24:18.806Z,8.05
2023-03-05T18:25:52.395Z,9.90
2023-03-05T18:27:25.812Z,8.80
2023-03-05T18:29:00.606Z,9.50
2023-03-05T18:30:34.837Z,11.48
2023-03-05T18:32:09.842Z,9.70
2023-03-05T18:33:44.918Z,8.88
2023-03-05T18:35:19.023Z,9.55
2023-03-05T18:36:52.502Z,9.93
2023-03-05T18:38:27.890Z,11.15
2023-03-05T18:40:03.277Z,9.23
2023-03-05T18:41:37.374Z,10.68
2023-03-05T18:43:11.404Z,9.05
2023-03-05T18:44:44.675Z,10.20
2023-03-05T18:46:18.204Z,9.82
2023-03-05T18:47:54.438Z,8.65
2023-03-05T18:49:29.119Z,9.43
2023-03-05T18:51:02.532Z,9.88
2023-03-05T18:52:35.693Z,10.27
2023-03-05T18:54:09.654Z,6.55
2023-03-05T18:55:45.179Z,9.23
2023-03-05T18:57:18.514Z,9.57
2023-03-05T18:58:51.998Z,11.23
2023-03-05T19:00:27.772Z,5.30
2023-03-05T19:02:00.965Z,5.18
2023-03-05T19:03:35.049Z,9.20
2023-03-05T19:05:08.832Z,8.15
2023-03-05T19:06:42.162Z,9.18
2023-03-05T19:08:15.427Z,9.60
2023-03-05T19:09:58.931Z,8.35
2023-03-05T19:11:34.158Z,8.13
2023-03-05T19:13:40.012Z,6.95
2023-03-05T19:15:14.722Z,9.07
2023-03-05T19:16:48.331Z,6.97
2023-03-05T19:18:55.656Z,9.57
2023-03-05T19:20:32.325Z,9.70
2023-03-05T19:22:05.525Z,9.95
2023-03-05T19:23:38.771Z,11.30
2023-03-05T19:25:13.164Z,10.57
2023-03-05T19:26:48.673Z,10.95
2023-03-05T19:28:22.375Z,10.40
2023-03-05T19:29:55.706Z,11.10
2023-03-05T19:31:29.018Z,11.57
2023-03-05T19:33:03.757Z,18.48
2023-03-05T19:34:37.552Z,16.17
2023-03-05T19:36:12.245Z,13.05
2023-03-05T19:37:46.311Z,14.27
2023-03-05T19:39:20.338Z,13.85
2023-03-05T19:40:53.562Z,13.00
2023-03-05T19:42:28.439Z,11.02
2023-03-05T19:44:02.030Z,11.25
2023-03-05T19:45:35.743Z,11.18
2023-03-05T19:47:11.512Z,12.10
2023-03-05T19:48:45.154Z,12.07
2023-03-05T19:50:18.506Z,14.50
2023-03-05T19:51:53.415Z,12.15
2023-03-05T19:53:26.872Z,12.40
2023-03-05T19:55:00.912Z,11.70
2023-03-05T19:56:34.338Z,11.85
2023-03-05T19:58:09.146Z,12.25
2023-03-05T19:59:44.143Z,10.07
2023-03-05T20:01:19.715Z,10.55
2023-03-05T20:02:52.867Z,11.27
2023-03-05T20:04:28.151Z,12.10
2023-03-05T20:06:01.493Z,12.00
2023-03-05T20:07:34.655Z,11.98
2023-03-05T20:09:08.225Z,10.32
2023-03-05T20:10:41.922Z,11.90
2023-03-05T20:12:15.152Z,14.52
2023-03-05T20:13:50.026Z,24.65
2023-03-05T20:15:23.626Z,12.10
2023-03-05T20:16:57.038Z,13.80
2023-03-05T20:18:30.303Z,12.38
2023-03-05T20:20:03.442Z,11.50
2023-03-05T20:21:39.749Z,10.35
2023-03-05T20:23:13.733Z,10.40
2023-03-05T20:24:47.387Z,8.45
2023-03-05T20:26:21.023Z,11.63
2023-03-05T20:27:54.171Z,10.70
2023-03-05T20:29:29.410Z,11.20
2023-03-05T20:31:03.537Z,10.13
2023-03-05T20:32:36.757Z,9.82
2023-03-05T20:34:12.290Z,10.18
2023-03-05T20:35:45.980Z,11.30
2023-03-05T20:37:57.080Z,11.35
2023-03-05T20:39:30.424Z,11.90
2023-03-05T20:41:06.144Z,11.95
2023-03-05T20:42:39.428Z,12.00
2023-03-05T20:44:13.695Z,10.10